Time;durP1;ratioP1;P1;durP2;ratioP2;P2;SDS_P1;SDS_P2;PMS_P1;PMS_P2;Temp;Humidity;BMP_temperature;BMP_pressure;BME280_temperature;BME280_humidity;BME280_pressure;Samples;Min_cycle;Max_cycle;Signal;HPM_P1;HPM_P2
2022/06/02 00:00:11;;;;;;;;;;;;;;;20.71;49.98;101768.94;7277219;19;153100;-57
2022/06/02 00:02:44;;;;;;;;;;;;;;;20.70;49.80;101770.06;7269232;19;155161;-56
2022/06/02 00:05:29;;;;;;;;;;;;;;;20.70;49.66;101770.06;7273981;19;151979;-56
2022/06/02 00:08:00;;;;;;;;;;;;;;;20.70;49.75;101777.66;7271457;19;152674;-56
2022/06/02 00:10:52;;;;;;;;;;;;;;;20.67;50.14;101773.44;7274323;19;154566;-58
2022/06/02 00:13:19;;;;;;;;;;;;;;;20.70;50.29;101767.25;7282942;19;152082;-57
2022/06/02 00:15:52;;;;;;;;;;;;;;;20.67;49.98;101779.03;7273960;19;153209;-56
2022/06/02 00:18:19;;;;;;;;;;;;;;;20.70;50.28;101772.03;7282917;19;152881;-58
2022/06/02 00:21:09;;;;;;;;;;;;;;;20.70;50.38;101767.25;7281546;19;153766;-57
2022/06/02 00:23:35;;;;;;;;;;;;;;;20.71;50.70;101768.94;7278709;19;154054;-58
2022/06/02 00:26:06;;;;;;;;;;;;;;;20.69;50.72;101768.38;7282884;19;151997;-57
2022/06/02 00:28:43;;;;;;;;;;;;;;;20.67;50.63;101765.00;7281905;19;152747;-57
2022/06/02 00:31:32;;;;;;;;;;;;;;;20.67;50.60;101770.63;7280307;19;153278;-56
2022/06/02 00:34:23;;;;;;;;;;;;;;;20.65;50.68;101770.09;7282172;19;152198;-57
2022/06/02 00:37:04;;;;;;;;;;;;;;;20.65;50.84;101775.69;7287652;19;152390;-57
2022/06/02 00:39:31;;;;;;;;;;;;;;;20.68;51.12;101769.50;7281021;19;152120;-57
2022/06/02 00:42:04;;;;;;;;;;;;;;;20.69;51.13;101771.19;7283162;19;153102;-58
2022/06/02 00:44:38;;;;;;;;;;;;;;;20.69;50.83;101765.56;7281015;19;155866;-58
2022/06/02 00:47:26;;;;;;;;;;;;;;;20.69;51.25;101773.16;7281338;19;154084;-57
2022/06/02 00:49:53;;;;;;;;;;;;;;;20.66;51.17;101760.53;7277810;19;153397;-57
2022/06/02 00:52:19;;;;;;;;;;;;;;;20.67;51.33;101767.81;7280963;19;153446;-56
2022/06/02 00:57:39;;;;;;;;;;;;;;;20.63;51.47;101760.25;7280351;19;153152;-57
2022/06/02 01:00:09;;;;;;;;;;;;;;;20.63;51.77;101766.72;7287088;19;154089;-56
2022/06/02 01:02:42;;;;;;;;;;;;;;;20.62;51.54;101765.06;7280148;19;153476;-58
2022/06/02 01:05:10;;;;;;;;;;;;;;;20.62;51.57;101775.44;7274433;19;154015;-58
2022/06/02 01:07:57;;;;;;;;;;;;;;;20.62;52.04;101769.84;7279733;19;152636;-58
2022/06/02 01:10:29;;;;;;;;;;;;;;;20.63;51.85;101761.09;7280729;19;153096;-57
2022/06/02 01:13:05;;;;;;;;;;;;;;;20.64;51.85;101775.97;7279775;19;153947;-57
2022/06/02 01:15:47;;;;;;;;;;;;;;;20.63;51.80;101768.69;7276740;19;155940;-56
2022/06/02 01:18:14;;;;;;;;;;;;;;;20.65;52.48;101772.91;7281388;19;152705;-56
2022/06/02 01:20:52;;;;;;;;;;;;;;;20.64;52.22;101773.16;7278671;19;153949;-56
2022/06/02 01:23:33;;;;;;;;;;;;;;;20.63;52.62;101769.53;7288225;19;152494;-57
2022/06/02 01:26:09;;;;;;;;;;;;;;;20.60;52.47;101772.91;7280611;19;153272;-58
2022/06/02 01:28:48;;;;;;;;;;;;;;;20.61;52.53;101769.00;7280472;19;151720;-56
2022/06/02 01:31:27;;;;;;;;;;;;;;;20.58;52.57;101765.94;7276758;19;153326;-58
2022/06/02 01:34:11;;;;;;;;;;;;;;;20.58;52.28;101774.34;7279013;19;154305;-58
2022/06/02 01:36:58;;;;;;;;;;;;;;;20.57;52.82;101773.50;7281700;19;152648;-57
2022/06/02 01:39:36;;;;;;;;;;;;;;;20.56;52.89;101777.44;7278759;19;152602;-57
2022/06/02 01:42:04;;;;;;;;;;;;;;;20.55;52.53;101778.56;7278862;19;153746;-56
2022/06/02 01:44:35;;;;;;;;;;;;;;;20.53;52.91;101775.22;7287702;19;152510;-57
2022/06/02 01:47:10;;;;;;;;;;;;;;;20.54;52.96;101778.84;7279666;19;153945;-56
2022/06/02 01:49:57;;;;;;;;;;;;;;;20.54;53.14;101778.84;7280221;19;153062;-57
2022/06/02 01:52:42;;;;;;;;;;;;;;;20.54;52.86;101781.63;7279818;19;153154;-56
2022/06/02 01:55:29;;;;;;;;;;;;;;;20.55;53.31;101774.91;7274208;19;153933;-56
2022/06/02 01:58:08;;;;;;;;;;;;;;;20.54;53.42;101784.44;7281593;19;152158;-57
2022/06/02 02:00:34;;;;;;;;;;;;;;;20.57;53.38;101783.91;7280771;19;153361;-58
2022/06/02 02:03:10;;;;;;;;;;;;;;;20.55;53.27;101778.56;7275104;19;153751;-56
2022/06/02 02:05:43;;;;;;;;;;;;;;;20.56;53.37;101779.41;7273309;19;152400;-56
2022/06/02 02:08:25;;;;;;;;;;;;;;;20.54;53.53;101776.88;7285566;19;153782;-57
2022/06/02 02:11:04;;;;;;;;;;;;;;;20.54;53.33;101773.22;7278540;19;151672;-56
2022/06/02 02:13:45;;;;;;;;;;;;;;;20.55;53.92;101772.94;7275813;19;153395;-57
2022/06/02 02:16:15;;;;;;;;;;;;;;;20.53;53.68;101775.22;7277435;19;153970;-58
2022/06/02 02:18:45;;;;;;;;;;;;;;;20.56;53.92;101770.97;7277213;19;152189;-58
2022/06/02 02:21:18;;;;;;;;;;;;;;;20.54;53.90;101779.69;7279759;19;153683;-57
2022/06/02 02:23:45;;;;;;;;;;;;;;;20.53;53.99;101780.81;7276080;19;153256;-57
2022/06/02 02:26:19;;;;;;;;;;;;;;;20.54;54.20;101782.47;7279509;19;151873;-56
2022/06/02 02:29:04;;;;;;;;;;;;;;;20.53;54.19;101771.56;7279448;19;153780;-58
2022/06/02 02:31:41;;;;;;;;;;;;;;;20.55;54.35;101767.31;7286116;19;154757;-57
2022/06/02 02:34:17;;;;;;;;;;;;;;;20.53;54.30;101772.41;7279185;19;153079;-57
2022/06/02 02:36:59;;;;;;;;;;;;;;;20.53;54.24;101765.94;7273923;19;154017;-58
2022/06/02 02:40:04;;;;;;;;;;;;;;;20.53;54.70;101777.19;7275501;19;152217;-57
2022/06/02 02:42:47;;;;;;;;;;;;;;;20.52;54.83;101769.88;7274379;19;153540;-57
2022/06/02 02:45:34;;;;;;;;;;;;;;;20.52;54.75;101783.91;7273711;19;154069;-57
2022/06/02 02:48:07;;;;;;;;;;;;;;;20.52;55.15;101775.50;7274241;19;152520;-57
2022/06/02 02:50:36;;;;;;;;;;;;;;;20.52;55.21;101779.16;7278777;19;154061;-57
2022/06/02 02:53:03;;;;;;;;;;;;;;;20.52;55.34;101772.69;7278291;19;154461;-57
2022/06/02 02:55:39;;;;;;;;;;;;;;;20.50;55.22;101775.78;7282956;19;152056;-56
2022/06/02 02:58:15;;;;;;;;;;;;;;;20.49;55.35;101774.09;7276230;19;154120;-57
2022/06/02 03:00:46;;;;;;;;;;;;;;;20.50;55.46;101772.97;7279419;19;152187;-58
2022/06/02 03:03:16;;;;;;;;;;;;;;;20.49;55.88;101774.09;7275141;19;153139;-56
2022/06/02 03:06:02;;;;;;;;;;;;;;;20.50;55.81;101772.97;7274001;19;154087;-57
2022/06/02 03:08:28;;;;;;;;;;;;;;;20.49;56.16;101785.31;7278302;19;152271;-56
2022/06/02 03:10:57;;;;;;;;;;;;;;;20.53;56.13;101769.59;7276911;19;153158;-56
2022/06/02 03:13:39;;;;;;;;;;;;;;;20.51;56.15;101768.19;7276965;19;153759;-56
2022/06/02 03:16:07;;;;;;;;;;;;;;;20.49;56.63;101770.47;7275597;19;152281;-57
2022/06/02 03:18:40;;;;;;;;;;;;;;;20.48;56.66;101769.63;7281528;19;153800;-56
2022/06/02 03:21:19;;;;;;;;;;;;;;;20.47;56.51;101767.94;7277242;19;152208;-56
2022/06/02 03:23:52;;;;;;;;;;;;;;;20.47;56.30;101762.31;7276762;19;152568;-56
2022/06/02 03:26:18;;;;;;;;;;;;;;;20.46;56.36;101766.25;7276117;19;154487;-57
2022/06/02 03:29:04;;;;;;;;;;;;;;;20.46;56.25;101769.06;7277246;19;152422;-56
2022/06/02 03:31:45;;;;;;;;;;;;;;;20.44;56.46;101771.31;7276664;19;153797;-56
2022/06/02 03:34:24;;;;;;;;;;;;;;;20.42;56.29;101780.03;7272906;19;154079;-55
2022/06/02 03:36:57;;;;;;;;;;;;;;;20.42;56.47;101770.75;7277559;19;152015;-57
2022/06/02 03:39:33;;;;;;;;;;;;;;;20.41;56.13;101767.13;7277182;19;153836;-57
2022/06/02 03:42:07;;;;;;;;;;;;;;;20.40;56.42;101759.81;7278782;19;153976;-57
2022/06/02 03:44:37;;;;;;;;;;;;;;;20.42;56.33;101759.53;7277677;19;153461;-57
2022/06/02 03:47:03;;;;;;;;;;;;;;;20.41;56.10;101763.47;7275824;19;153959;-57
2022/06/02 03:49:30;;;;;;;;;;;;;;;20.39;56.28;101765.72;7275593;19;152285;-56
2022/06/02 03:52:14;;;;;;;;;;;;;;;20.39;56.22;101760.13;7282123;19;153440;-57
2022/06/02 03:54:59;;;;;;;;;;;;;;;20.38;56.14;101762.09;7281949;19;154388;-58
2022/06/02 03:57:45;;;;;;;;;;;;;;;20.38;56.00;101767.69;7283900;19;152429;-55
2022/06/02 04:00:12;;;;;;;;;;;;;;;20.38;56.38;101766.84;7283829;19;153093;-58
2022/06/02 04:02:50;;;;;;;;;;;;;;;20.38;55.88;101772.47;7288631;19;153976;-56
2022/06/02 04:05:42;;;;;;;;;;;;;;;20.37;56.27;101770.78;7281427;19;153645;-57
2022/06/02 04:08:23;;;;;;;;;;;;;;;20.36;55.92;101777.50;7279613;19;154623;-57
2022/06/02 04:11:04;;;;;;;;;;;;;;;20.35;56.36;101771.06;7283395;19;151925;-56
2022/06/02 04:13:50;;;;;;;;;;;;;;;20.35;56.09;101775.88;7281921;19;153491;-56
2022/06/02 04:16:22;;;;;;;;;;;;;;;20.32;56.41;101777.25;7278778;19;153946;-57
2022/06/02 04:22:08;;;;;;;;;;;;;;;20.31;56.16;101780.34;7283318;19;155106;-58
2022/06/02 04:24:59;;;;;;;;;;;;;;;20.32;56.37;101780.06;7281124;19;154399;-58
2022/06/02 04:27:32;;;;;;;;;;;;;;;20.33;56.44;101784.56;7288998;19;152181;-56
2022/06/02 04:30:03;;;;;;;;;;;;;;;20.33;56.45;101786.53;7279044;19;153249;-56
2022/06/02 04:32:48;;;;;;;;;;;;;;;20.31;56.51;101786.78;7283235;19;152286;-56
2022/06/02 04:35:37;;;;;;;;;;;;;;;20.32;56.34;101790.44;7282261;19;153689;-57
2022/06/02 04:38:07;;;;;;;;;;;;;;;20.33;56.53;101786.53;7280354;19;153487;-57
2022/06/02 04:40:36;;;;;;;;;;;;;;;20.31;56.81;101786.78;7283021;19;152691;-56
2022/06/02 04:43:21;;;;;;;;;;;;;;;20.35;56.66;101798.31;7280760;19;153531;-54
2022/06/02 04:46:06;;;;;;;;;;;;;;;20.34;56.92;101803.09;7281452;19;153798;-56
2022/06/02 04:48:49;;;;;;;;;;;;;;;20.32;56.96;101798.88;7280947;19;152326;-55
2022/06/02 04:51:15;;;;;;;;;;;;;;;20.32;56.78;101807.28;7287796;19;155562;-56
2022/06/02 04:53:56;;;;;;;;;;;;;;;20.30;56.82;101801.97;7282601;19;152400;-57
2022/06/02 04:56:44;;;;;;;;;;;;;;;20.30;56.46;101807.59;7278675;19;153426;-57
2022/06/02 04:59:16;;;;;;;;;;;;;;;20.30;56.66;101806.75;7280259;19;153341;-56
2022/06/02 05:01:51;;;;;;;;;;;;;;;20.29;56.63;101810.63;7281859;19;153471;-56
2022/06/02 05:04:27;;;;;;;;;;;;;;;20.29;56.65;101810.63;7277967;19;153623;-57
2022/06/02 05:06:54;;;;;;;;;;;;;;;20.27;56.23;101801.66;7278004;19;153644;-56
2022/06/02 05:09:31;;;;;;;;;;;;;;;20.26;56.43;101808.41;7277140;19;152003;-55
2022/06/02 05:12:10;;;;;;;;;;;;;;;20.25;56.38;101809.53;7279900;19;153416;-56
2022/06/02 05:14:43;;;;;;;;;;;;;;;20.25;56.21;101806.72;7287083;19;154031;-56
2022/06/02 05:17:15;;;;;;;;;;;;;;;20.25;56.56;101812.34;7281422;19;153049;-56
2022/06/02 05:19:58;;;;;;;;;;;;;;;20.23;56.66;101814.56;7278868;19;153170;-57
2022/06/02 05:22:48;;;;;;;;;;;;;;;20.24;56.22;101808.69;7280206;19;152075;-57
2022/06/02 05:25:38;;;;;;;;;;;;;;;20.24;56.54;101824.69;7279900;19;153625;-56
2022/06/02 05:28:11;;;;;;;;;;;;;;;20.28;55.99;101822.97;7276553;19;152895;-57
2022/06/02 05:30:45;;;;;;;;;;;;;;;20.33;56.31;101828.63;7280832;19;151694;-57
2022/06/02 05:33:12;;;;;;;;;;;;;;;20.37;56.53;101832.53;7280405;19;152613;-57
2022/06/02 05:35:51;;;;;;;;;;;;;;;20.40;56.31;101834.75;7277609;19;153968;-56
2022/06/02 05:38:24;;;;;;;;;;;;;;;20.45;56.46;101833.91;7289557;19;152153;-56
2022/06/02 05:41:06;;;;;;;;;;;;;;;20.52;56.85;101831.63;7280178;19;153724;-56
2022/06/02 05:43:49;;;;;;;;;;;;;;;20.58;57.10;101830.50;7280423;19;152209;-56
2022/06/02 05:46:16;;;;;;;;;;;;;;;20.67;57.41;101828.78;7280170;19;152817;-58
2022/06/02 05:48:58;;;;;;;;;;;;;;;20.73;57.37;101839.69;7278911;19;154482;-57
2022/06/02 05:51:39;;;;;;;;;;;;;;;20.82;56.92;101839.91;7279842;19;152312;-56
2022/06/02 05:54:09;;;;;;;;;;;;;;;20.89;57.31;101836.81;7280054;19;153410;-56
2022/06/02 05:56:54;;;;;;;;;;;;;;;20.95;56.72;101844.91;7275467;19;154204;-56
2022/06/02 05:59:27;;;;;;;;;;;;;;;21.04;56.50;101842.31;7281131;19;152267;-57
2022/06/02 06:02:03;;;;;;;;;;;;;;;21.12;56.44;101833.28;7284943;19;153768;-56
2022/06/02 06:04:52;;;;;;;;;;;;;;;21.18;56.44;101844.22;7281371;19;152429;-56
2022/06/02 06:07:38;;;;;;;;;;;;;;;21.27;55.90;101841.63;7277902;19;153550;-56
2022/06/02 06:10:07;;;;;;;;;;;;;;;21.35;56.10;101838.19;7273971;19;155008;-57
2022/06/02 06:12:52;;;;;;;;;;;;;;;21.43;55.53;101848.00;7279999;19;152161;-58
2022/06/02 06:15:35;;;;;;;;;;;;;;;21.50;55.36;101842.88;7277230;19;153376;-57
2022/06/02 06:18:20;;;;;;;;;;;;;;;21.56;55.17;101839.75;7279105;19;154215;-57
2022/06/02 06:21:10;;;;;;;;;;;;;;;21.65;54.97;101834.31;7276370;19;152516;-56
2022/06/02 06:23:55;;;;;;;;;;;;;;;21.71;54.43;101839.59;7284697;19;152833;-58
2022/06/02 06:26:40;;;;;;;;;;;;;;;21.79;54.40;101835.31;7279283;19;151929;-57
2022/06/02 06:29:27;;;;;;;;;;;;;;;21.85;54.04;101839.75;7278442;19;153406;-57
2022/06/02 06:31:54;;;;;;;;;;;;;;;21.94;54.25;101837.19;7277955;19;153221;-56
2022/06/02 06:34:37;;;;;;;;;;;;;;;21.97;54.07;101840.25;7276486;19;152156;-58
2022/06/02 06:37:06;;;;;;;;;;;;;;;22.02;53.72;101845.81;7276922;19;153388;-58
2022/06/02 06:39:54;;;;;;;;;;;;;;;22.06;53.55;101846.06;7278485;19;153904;-57
2022/06/02 06:42:36;;;;;;;;;;;;;;;22.10;53.58;101847.16;7278827;19;152401;-57
2022/06/02 06:45:03;;;;;;;;;;;;;;;22.14;53.05;101853.84;7279175;19;152421;-57
2022/06/02 06:47:42;;;;;;;;;;;;;;;22.17;52.96;101842.81;7284924;19;153933;-56
2022/06/02 06:50:29;;;;;;;;;;;;;;;22.21;52.60;101839.44;7278695;19;152843;-57
2022/06/02 06:53:15;;;;;;;;;;;;;;;22.22;52.36;101833.50;7276225;19;153961;-57
2022/06/02 06:55:50;;;;;;;;;;;;;;;22.25;52.35;101838.53;7277976;19;152708;-57
2022/06/02 06:58:23;;;;;;;;;;;;;;;22.29;52.80;101848.06;7275303;19;152963;-57
2022/06/02 07:00:56;;;;;;;;;;;;;;;22.29;51.95;101844.41;7277887;19;153666;-56
2022/06/02 07:03:47;;;;;;;;;;;;;;;22.31;52.01;101850.56;7273684;19;152377;-57
2022/06/02 07:06:19;;;;;;;;;;;;;;;22.30;52.18;101849.75;7278287;19;153647;-56
2022/06/02 07:08:52;;;;;;;;;;;;;;;22.30;51.93;101846.09;7274437;19;153193;-57
2022/06/02 07:14:29;;;;;;;;;;;;;;;22.31;52.02;101853.38;7275066;19;153695;-56
2022/06/02 07:16:56;;;;;;;;;;;;;;;22.31;51.94;101850.56;7277489;19;152352;-56
2022/06/02 07:19:29;;;;;;;;;;;;;;;22.30;51.49;101854.53;7277813;19;154003;-57
2022/06/02 07:21:58;;;;;;;;;;;;;;;22.30;51.78;101848.91;7276601;19;154021;-57
2022/06/02 07:24:34;;;;;;;;;;;;;;;22.29;51.86;101850.03;7276363;19;152268;-57
2022/06/02 07:27:16;;;;;;;;;;;;;;;22.28;51.37;101860.47;7287001;19;153346;-57
2022/06/02 07:30:03;;;;;;;;;;;;;;;22.28;51.74;101859.63;7290944;19;154152;-58
2022/06/02 07:32:46;;;;;;;;;;;;;;;22.27;51.59;101858.78;7291248;19;151799;-57
2022/06/02 07:35:13;;;;;;;;;;;;;;;22.25;51.89;101866.69;7294605;19;152381;-58
2022/06/02 07:37:40;;;;;;;;;;;;;;;22.25;51.84;101858.25;7288050;19;151797;-57
2022/06/02 07:40:13;;;;;;;;;;;;;;;22.25;51.99;101869.50;7291022;19;152684;-58
2022/06/02 07:42:42;;;;;;;;;;;;;;;22.23;51.93;101868.97;7289542;19;153647;-56
2022/06/02 07:45:18;;;;;;;;;;;;;;;22.24;51.99;101873.47;7292527;19;151952;-57
2022/06/02 07:47:54;;;;;;;;;;;;;;;22.22;51.99;101872.91;7290570;19;153254;-57
2022/06/02 07:50:20;;;;;;;;;;;;;;;22.21;52.16;101871.25;7288974;19;154503;-58
2022/06/02 07:53:06;;;;;;;;;;;;;;;22.19;51.81;101873.50;7291670;19;151958;-56
2022/06/02 07:55:49;;;;;;;;;;;;;;;22.18;51.80;101875.47;7288826;19;153398;-55
2022/06/02 07:58:24;;;;;;;;;;;;;;;22.16;51.33;101872.13;7296689;19;152849;-57
2022/06/02 08:00:56;;;;;;;;;;;;;;;22.16;51.56;101871.31;7289774;19;153183;-56
2022/06/02 08:03:30;;;;;;;;;;;;;;;22.14;51.27;101870.75;7287161;19;153807;-56
2022/06/02 08:06:09;;;;;;;;;;;;;;;22.13;51.16;101877.50;7289000;19;152133;-57
2022/06/02 08:09:15;;;;;;;;;;;;;;;22.11;51.06;101865.72;7289559;19;155213;-56
2022/06/02 08:11:45;;;;;;;;;;;;;;;22.10;51.04;101867.69;7285062;19;152742;-57
2022/06/02 08:14:16;;;;;;;;;;;;;;;22.08;51.57;101860.66;7286839;19;151943;-57
2022/06/02 08:17:09;;;;;;;;;;;;;;;22.07;51.34;101867.44;7287659;19;153303;-57
2022/06/02 08:20:01;;;;;;;;;;;;;;;22.03;51.19;101861.56;7284923;19;154065;-57
2022/06/02 08:22:48;;;;;;;;;;;;;;;22.02;51.69;101870.31;7298483;19;152223;-56
2022/06/02 08:25:21;;;;;;;;;;;;;;;22.01;51.10;101860.19;7286998;19;152927;-56
2022/06/02 08:28:29;;;;;;;;;;;;;;;21.99;51.10;101863.28;7289592;19;151749;-58
2022/06/02 08:31:13;;;;;;;;;;;;;;;21.98;51.28;101863.59;7290967;19;153753;-57
2022/06/02 08:33:50;;;;;;;;;;;;;;;21.97;51.39;101867.53;7288125;19;152504;-56
2022/06/02 08:36:29;;;;;;;;;;;;;;;21.96;51.48;101865.84;7289009;19;152284;-56
2022/06/02 08:39:12;;;;;;;;;;;;;;;21.94;51.23;101870.97;7281316;19;154696;-58
2022/06/02 08:41:57;;;;;;;;;;;;;;;21.92;51.04;101867.56;7281435;19;153625;-56
2022/06/02 08:44:46;;;;;;;;;;;;;;;21.92;50.86;101864.75;7291493;19;152446;-58
2022/06/02 08:47:16;;;;;;;;;;;;;;;21.92;51.00;101874.03;7278695;19;153741;-55
2022/06/02 08:50:09;;;;;;;;;;;;;;;21.91;51.17;101865.88;7281544;19;152137;-57
2022/06/02 08:52:55;;;;;;;;;;;;;;;21.87;50.85;101864.78;7280431;19;152871;-57
2022/06/02 08:55:43;;;;;;;;;;;;;;;21.90;51.04;101864.19;7281606;19;154255;-56
2022/06/02 08:58:39;;;;;;;;;;;;;;;21.87;50.95;101861.97;7281151;19;152374;-56
2022/06/02 09:01:24;;;;;;;;;;;;;;;21.89;50.91;101862.53;7283874;19;153968;-56
2022/06/02 09:04:10;;;;;;;;;;;;;;;21.90;51.00;101867.00;7279625;19;154106;-56
2022/06/02 09:06:40;;;;;;;;;;;;;;;21.88;51.28;101874.91;7280513;19;152216;-56
2022/06/02 09:09:19;;;;;;;;;;;;;;;21.85;51.09;101879.13;7287655;19;155596;-57
2022/06/02 09:11:54;;;;;;;;;;;;;;;21.83;51.39;101877.75;7280142;19;152319;-57
2022/06/02 09:14:24;;;;;;;;;;;;;;;21.82;51.23;101873.25;7279369;19;155023;-57
2022/06/02 09:16:58;;;;;;;;;;;;;;;21.81;51.37;101868.75;7281674;19;153975;-56
2022/06/02 09:19:33;;;;;;;;;;;;;;;21.77;51.15;101874.16;7282279;19;152571;-57
2022/06/02 09:22:00;;;;;;;;;;;;;;;21.77;51.39;101871.34;7283705;19;152499;-55
2022/06/02 09:24:41;;;;;;;;;;;;;;;21.77;51.50;101868.53;7279329;19;153756;-57
2022/06/02 09:27:26;;;;;;;;;;;;;;;21.68;46.59;101870.28;7282378;19;154159;-57
2022/06/02 09:29:59;;;;;;;;;;;;;;;21.60;45.98;101868.09;7281569;19;153140;-55
2022/06/02 09:32:44;;;;;;;;;;;;;;;21.63;44.95;101859.91;7288266;19;153331;-57
2022/06/02 09:35:22;;;;;;;;;;;;;;;21.70;45.52;101859.59;7281990;19;152868;-57
2022/06/02 09:38:12;;;;;;;;;;;;;;;21.62;45.71;101863.03;7278189;19;155410;-57
2022/06/02 09:40:51;;;;;;;;;;;;;;;21.47;44.81;101866.81;7282642;19;152705;-57
2022/06/02 09:46:42;;;;;;;;;;;;;;;21.23;42.75;101860.22;7281080;19;153312;-57
2022/06/02 09:49:31;;;;;;;;;;;;;;;21.21;42.44;101868.13;7278007;19;152065;-57
2022/06/02 09:52:42;;;;;;;;;;;;;;;21.22;42.02;101862.19;7281769;19;152024;-57
2022/06/02 09:55:54;;;;;;;;;;;;;;;21.14;40.90;101854.38;7275849;19;152472;-56
2022/06/02 09:59:01;;;;;;;;;;;;;;;21.07;41.72;101861.44;7282344;19;152225;-56
2022/06/02 10:05:42;;;;;;;;;;;;;;;21.08;42.18;101846.22;7280545;19;152088;-58
2022/06/02 10:08:10;;;;;;;;;;;;;;;21.20;42.16;101853.22;7281284;19;152010;-57
2022/06/02 10:10:43;;;;;;;;;;;;;;;21.29;42.20;101847.81;7276797;19;153515;-56
2022/06/02 10:13:29;;;;;;;;;;;;;;;21.36;42.44;101848.31;7276720;19;152194;-57
2022/06/02 10:15:55;;;;;;;;;;;;;;;21.39;42.56;101850.56;7281586;19;153510;-57
2022/06/02 10:18:26;;;;;;;;;;;;;;;21.44;43.46;101841.25;7275818;19;154065;-57
2022/06/02 10:20:56;;;;;;;;;;;;;;;21.48;43.66;101834.75;7279635;19;152049;-57
2022/06/02 10:23:42;;;;;;;;;;;;;;;21.51;43.52;101844.56;7285510;19;153383;-57
2022/06/02 10:26:27;;;;;;;;;;;;;;;21.51;44.46;101836.97;7279582;19;152504;-56
2022/06/02 10:29:21;;;;;;;;;;;;;;;21.56;44.07;101836.94;7280245;19;153444;-58
2022/06/02 10:31:51;;;;;;;;;;;;;;;21.59;44.22;101827.88;7277263;19;154026;-57
2022/06/02 10:34:26;;;;;;;;;;;;;;;21.52;44.52;101827.41;7280924;19;152167;-56
2022/06/02 10:37:14;;;;;;;;;;;;;;;21.49;44.67;101829.94;7279882;19;152636;-57
2022/06/02 10:39:49;;;;;;;;;;;;;;;21.41;45.13;101837.03;7279543;19;154591;-57
2022/06/02 10:42:35;;;;;;;;;;;;;;;21.40;44.81;101835.34;7279506;19;152507;-59
2022/06/02 10:45:08;;;;;;;;;;;;;;;21.40;45.11;101826.91;7278318;19;152974;-57
2022/06/02 10:47:53;;;;;;;;;;;;;;;21.45;44.69;101826.03;7283201;19;151889;-57
2022/06/02 10:50:28;;;;;;;;;;;;;;;21.47;44.63;101833.06;7278639;19;152553;-58
2022/06/02 10:53:10;;;;;;;;;;;;;;;21.45;44.88;101829.69;7277074;19;153236;-57
2022/06/02 10:55:56;;;;;;;;;;;;;;;21.40;44.91;101834.50;7278280;19;152719;-57
2022/06/02 10:58:37;;;;;;;;;;;;;;;21.42;44.91;101829.44;7275740;19;152664;-58
2022/06/02 11:01:16;;;;;;;;;;;;;;;21.40;44.77;101821.28;7275335;19;154854;-57
2022/06/02 11:03:52;;;;;;;;;;;;;;;21.37;44.29;101824.69;7276691;19;152320;-58
2022/06/02 11:06:37;;;;;;;;;;;;;;;21.45;43.74;101817.59;7278980;19;153890;-56
2022/06/02 11:09:23;;;;;;;;;;;;;;;21.47;43.91;101820.97;7285392;19;154288;-58
2022/06/02 11:12:21;;;;;;;;;;;;;;;21.50;43.95;101820.38;7279014;19;154854;-56
2022/06/02 11:15:08;;;;;;;;;;;;;;;21.49;44.88;101810.25;7273042;19;154276;-56
2022/06/02 11:17:43;;;;;;;;;;;;;;;21.51;44.31;101813.63;7278372;19;152057;-58
2022/06/02 11:20:10;;;;;;;;;;;;;;;21.56;42.15;101811.63;7276698;19;153983;-58
2022/06/02 11:22:40;;;;;;;;;;;;;;;21.59;43.34;101813.00;7277337;19;154797;-57
2022/06/02 11:25:40;;;;;;;;;;;;;;;21.60;43.94;101809.06;7277816;19;151708;-57
2022/06/02 11:28:08;;;;;;;;;;;;;;;21.64;44.30;101804.50;7278062;19;152621;-57
2022/06/02 11:30:47;;;;;;;;;;;;;;;21.63;44.04;101802.81;7276805;19;154792;-57
2022/06/02 11:33:32;;;;;;;;;;;;;;;21.65;44.15;101804.22;7285891;19;151892;-58
2022/06/02 11:36:18;;;;;;;;;;;;;;;21.67;44.44;101804.75;7277354;19;154315;-56
2022/06/02 11:39:00;;;;;;;;;;;;;;;21.68;44.30;101800.81;7274187;19;152151;-58
2022/06/02 11:41:45;;;;;;;;;;;;;;;21.68;44.16;101795.19;7277513;19;153318;-57
2022/06/02 11:44:23;;;;;;;;;;;;;;;21.72;44.43;101799.09;7277261;19;153932;-57
2022/06/02 11:47:00;;;;;;;;;;;;;;;21.71;44.13;101791.78;7276961;19;152187;-58
2022/06/02 11:49:46;;;;;;;;;;;;;;;21.72;44.39;101793.47;7276418;19;152815;-58
2022/06/02 11:52:13;;;;;;;;;;;;;;;21.66;44.27;101793.81;7275972;19;153856;-56
2022/06/02 11:54:40;;;;;;;;;;;;;;;21.61;44.24;101788.25;7277281;19;155799;-56
2022/06/02 11:57:15;;;;;;;;;;;;;;;21.55;44.58;101784.63;7280270;19;152950;-57
2022/06/02 11:59:51;;;;;;;;;;;;;;;21.56;44.70;101786.31;7277074;19;151696;-56
2022/06/02 12:02:44;;;;;;;;;;;;;;;21.58;44.95;101771.94;7273928;19;152887;-58
2022/06/02 12:05:36;;;;;;;;;;;;;;;21.56;44.81;101771.41;7276407;19;154077;-57
2022/06/02 12:08:06;;;;;;;;;;;;;;;21.55;45.16;101773.38;7278013;19;152050;-58
2022/06/02 12:10:56;;;;;;;;;;;;;;;21.51;44.89;101763.00;7278586;19;153713;-57
2022/06/02 12:13:23;;;;;;;;;;;;;;;21.48;45.35;101766.44;7280638;19;153220;-57
2022/06/02 12:15:51;;;;;;;;;;;;;;;21.47;44.96;101764.75;7286065;19;152368;-57
2022/06/02 12:18:32;;;;;;;;;;;;;;;21.45;45.26;101765.03;7283524;19;153317;-57
2022/06/02 12:21:20;;;;;;;;;;;;;;;21.44;45.32;101762.53;7290443;19;153641;-57
2022/06/02 12:24:05;;;;;;;;;;;;;;;21.42;45.08;101756.34;7284986;19;152673;-57
2022/06/02 12:26:47;;;;;;;;;;;;;;;21.42;45.10;101753.53;7283832;19;154273;-57
2022/06/02 12:29:24;;;;;;;;;;;;;;;21.42;45.59;101751.56;7285687;19;152682;-57
2022/06/02 12:31:51;;;;;;;;;;;;;;;21.42;45.36;101756.34;7284277;19;152960;-57
2022/06/02 12:34:27;;;;;;;;;;;;;;;21.40;45.54;101755.78;7285073;19;153318;-57
2022/06/02 12:37:03;;;;;;;;;;;;;;;21.37;45.61;101757.22;7282553;19;152239;-57
2022/06/02 12:39:50;;;;;;;;;;;;;;;21.37;45.75;101754.41;7283341;19;152585;-56
2022/06/02 12:42:23;;;;;;;;;;;;;;;21.35;45.69;101758.69;7283744;19;154317;-58
2022/06/02 12:44:56;;;;;;;;;;;;;;;21.35;45.42;101750.25;7293458;19;154316;-57
2022/06/02 12:47:34;;;;;;;;;;;;;;;21.35;45.86;101753.88;7282703;19;154400;-58
2022/06/02 12:50:06;;;;;;;;;;;;;;;21.34;45.53;101748.56;7285318;19;152458;-56
2022/06/02 12:52:39;;;;;;;;;;;;;;;21.33;45.85;101744.91;7285016;19;153561;-58
2022/06/02 12:55:27;;;;;;;;;;;;;;;21.33;45.97;101744.91;7283145;19;153273;-57
2022/06/02 12:58:29;;;;;;;;;;;;;;;21.33;45.82;101744.06;7282277;19;151919;-57
2022/06/02 13:01:16;;;;;;;;;;;;;;;21.32;46.13;101740.41;7283899;19;153344;-58
2022/06/02 13:03:49;;;;;;;;;;;;;;;21.30;46.17;101737.88;7281665;19;153909;-57
2022/06/02 13:06:41;;;;;;;;;;;;;;;21.35;46.12;101747.44;7291661;19;155496;-58
2022/06/02 13:09:14;;;;;;;;;;;;;;;21.36;45.83;101740.66;7283299;19;153385;-56
2022/06/02 13:11:59;;;;;;;;;;;;;;;21.37;46.00;101733.91;7284000;19;153689;-56
2022/06/02 13:14:43;;;;;;;;;;;;;;;21.37;45.80;101733.91;7280675;19;153049;-56
2022/06/02 13:17:16;;;;;;;;;;;;;;;21.37;45.96;101736.72;7239521;19;158850;-58
2022/06/02 13:20:01;;;;;;;;;;;;;;;21.45;47.40;101739.72;7271989;19;151962;-59
2022/06/02 13:26:12;;;;;;;;;;;;;;;21.43;46.06;101733.56;7276371;19;152787;-56
2022/06/02 13:28:46;;;;;;;;;;;;;;;21.40;45.93;101738.91;7281060;19;151744;-56
2022/06/02 13:31:31;;;;;;;;;;;;;;;21.36;45.46;101740.66;7287797;19;152999;-57
2022/06/02 13:34:17;;;;;;;;;;;;;;;21.35;44.71;101748.25;7281929;19;152506;-55
2022/06/02 13:36:44;;;;;;;;;;;;;;;21.39;45.38;101743.72;7280565;19;153539;-57
2022/06/02 13:39:23;;;;;;;;;;;;;;;21.37;45.69;101737.56;7275862;19;152843;-56
2022/06/02 13:42:09;;;;;;;;;;;;;;;21.37;45.51;101729.13;7278196;19;151821;-57
2022/06/02 13:44:53;;;;;;;;;;;;;;;21.38;45.83;101729.97;7280281;19;152625;-56